Mc Grath, Alaska
Current Conditions -  °F | °C
As of 10:53 AM on Monday 24 Nov 2014 (Local Time) from PAMC Reporting Station
Overcast Overcast  
Wind Chill: 13°   Ceiling: 1500
Heat Index: 13°   Visibility: 10mi
Dew Point:   Wind: 3mph
Humidity: 65%   Direction: 150°SSE
Pressure: 29.76"   Gusts: NA
Location:  63.1005°N, 155.153°W
Report Text: PAMC 241953Z 15003KT 10SM OVC015 M11/M16 A2976 RMK AO2 SLP088 T11061161
Loading
Personal Weather Stations






























Interactive Weather Map New forecast layout! Learn more

10-Day Weather Forecast

Advertisements
Track Severe Weather on mobile